地図

経路データ

SID SEASON NUMBER BASIN SUBBASIN NAME ISO_TIME NATURE LAT LON WMO_WIND WMO_PRES WMO_AGENCY TRACK_TYPE DIST2LAND LANDFALL IFLAG USA_AGENCY USA_ATCF_ID USA_LAT USA_LON USA_RECORD USA_STATUS USA_WIND USA_PRES USA_SSHS USA_R34_NE USA_R34_SE USA_R34_SW USA_R34_NW USA_R50_NE USA_R50_SE USA_R50_SW USA_R50_NW USA_R64_NE USA_R64_SE USA_R64_SW USA_R64_NW USA_POCI USA_ROCI USA_RMW USA_EYE TOKYO_LAT TOKYO_LON TOKYO_GRADE TOKYO_WIND TOKYO_PRES TOKYO_R50_DIR TOKYO_R50_LONG TOKYO_R50_SHORT TOKYO_R30_DIR TOKYO_R30_LONG TOKYO_R30_SHORT TOKYO_LAND CMA_LAT CMA_LON CMA_CAT CMA_WIND CMA_PRES HKO_LAT HKO_LON HKO_CAT HKO_WIND HKO_PRES NEWDELHI_LAT NEWDELHI_LON NEWDELHI_GRADE NEWDELHI_WIND NEWDELHI_PRES NEWDELHI_CI NEWDELHI_DP NEWDELHI_POCI REUNION_LAT REUNION_LON REUNION_TYPE REUNION_WIND REUNION_PRES REUNION_TNUM REUNION_CI REUNION_RMW REUNION_R34_NE REUNION_R34_SE REUNION_R34_SW REUNION_R34_NW REUNION_R50_NE REUNION_R50_SE REUNION_R50_SW REUNION_R50_NW REUNION_R64_NE REUNION_R64_SE REUNION_R64_SW REUNION_R64_NW BOM_LAT BOM_LON BOM_TYPE BOM_WIND BOM_PRES BOM_TNUM BOM_CI BOM_RMW BOM_R34_NE BOM_R34_SE BOM_R34_SW BOM_R34_NW BOM_R50_NE BOM_R50_SE BOM_R50_SW BOM_R50_NW BOM_R64_NE BOM_R64_SE BOM_R64_SW BOM_R64_NW BOM_ROCI BOM_POCI BOM_EYE BOM_POS_METHOD BOM_PRES_METHOD NADI_LAT NADI_LON NADI_CAT NADI_WIND NADI_PRES WELLINGTON_LAT WELLINGTON_LON WELLINGTON_WIND WELLINGTON_PRES DS824_LAT DS824_LON DS824_STAGE DS824_WIND DS824_PRES TD9636_LAT TD9636_LON TD9636_STAGE TD9636_WIND TD9636_PRES TD9635_LAT TD9635_LON TD9635_WIND TD9635_PRES TD9635_ROCI NEUMANN_LAT NEUMANN_LON NEUMANN_CLASS NEUMANN_WIND NEUMANN_PRES MLC_LAT MLC_LON MLC_CLASS MLC_WIND MLC_PRES USA_GUST BOM_GUST BOM_GUST_PER REUNION_GUST REUNION_GUST_PER USA_SEAHGT USA_SEARAD_NE USA_SEARAD_SE USA_SEARAD_SW USA_SEARAD_NW STORM_SPEED STORM_DIR
1950205N21131 1950 41 WP MM NOT_NAMED 1950-07-24 00:00:00 TS 21.0000 130.500 spur-merge 906 792 __O___________ -1 21.0000 130.500 2 38 990 23 274
1950205N21131 1950 41 WP MM NOT_NAMED 1950-07-24 03:00:00 TS 21.0785 129.275 spur-merge 792 682 __P___________ -1 21.0785 129.275 2 38 990 23 275
1950205N21131 1950 41 WP MM NOT_NAMED 1950-07-24 06:00:00 TS 21.2000 128.000 spur-merge 673 577 __O___________ -1 21.2000 128.000 2 38 990 24 278
1950205N21131 1950 41 WP MM NOT_NAMED 1950-07-24 09:00:00 TS 21.4055 126.675 spur-merge 569 383 __P___________ -1 21.4055 126.675 2 38 990 31 284
1950205N21131 1950 41 WP MM NOT_NAMED 1950-07-24 12:00:00 TS 21.9600 124.820 spur-merge 370 267 __O_______O___ -1 21.7000 125.500 2 38 990 23.0000 122.100 2 28 291
1950205N21131 1950 41 WP MM NOT_NAMED 1950-07-24 15:00:00 TS 22.4084 123.890 spur-merge 267 217 __P_______P___ -1 22.0615 124.615 2 38 990 23.1022 122.440 2 15 304
1950205N21131 1950 41 WP MM NOT_NAMED 1950-07-24 18:00:00 TS 22.8014 123.475 spur-merge 217 194 __O_______P___ -1 22.5000 124.000 2 38 990 23.2033 122.774 2 9 324
1950205N21131 1950 41 WP MM NOT_NAMED 1950-07-24 21:00:00 TS 23.1549 123.306 spur-merge 191 186 __P_______P___ -1 23.0071 123.515 2 38 990 23.3027 123.097 2 7 350
1950205N21131 1950 41 WP MM NOT_NAMED 1950-07-25 00:00:00 TS 23.4500 123.350 spur-merge 188 182 __O_______O___ -1 23.5000 123.300 2 38 990 23.4000 123.400 2 6 18
1950205N21131 1950 41 WP MM NOT_NAMED 1950-07-25 03:00:00 TS 23.7026 123.505 spur-merge 185 185 __P_______P___ -1 23.9097 123.329 2 38 990 23.4956 123.682 2 6 41
1950205N21131 1950 41 WP MM NOT_NAMED 1950-07-25 06:00:00 TS 23.8960 123.775 spur-merge 203 203 __O_______P___ -1 24.2000 123.600 2 38 990 23.5920 123.950 2 6 60
1950205N21131 1950 41 WP MM NOT_NAMED 1950-07-25 09:00:00 TS 24.0225 124.112 spur-merge 229 229 __P_______P___ -1 24.3527 124.005 2 38 990 23.6924 124.219 2 7 73
1950205N21131 1950 41 WP MM NOT_NAMED 1950-07-25 12:00:00 TS 24.1000 124.500 spur-merge 267 267 __O_______O___ -1 24.4000 124.500 2 38 990 23.8000 124.500 2 7 81
1950205N21131 1950 41 WP MM NOT_NAMED 1950-07-25 15:00:00 TS 24.1295 124.826 spur-merge 297 297 __P_______P___ -1 24.3922 124.935 2 38 990 23.8668 124.716 2 6 83
1950205N21131 1950 41 WP MM NOT_NAMED 1950-07-25 18:00:00 TS 24.1744 125.180 spur-merge 335 335 __O_______P___ -1 24.4000 125.400 2 38 990 23.9487 124.960 2 7 76
1950205N21131 1950 41 WP MM NOT_NAMED 1950-07-25 21:00:00 TS 24.3044 125.613 spur-merge 371 371 __P_______P___ -1 24.5274 125.927 2 38 990 24.0814 125.299 2 9 70
1950205N21131 1950 41 WP MM NOT_NAMED 1950-07-26 00:00:00 TS 24.5000 126.150 spur-merge 427 427 __O_______O___ -1 24.7000 126.500 2 38 990 24.3000 125.800 2 12 69
1950205N21131 1950 41 WP MM NOT_NAMED 1950-07-26 03:00:00 TS 24.7202 126.825 spur-merge 485 485 __P_______P___ -1 24.8344 127.063 2 43 989 24.6059 126.588 2 14 69
1950205N21131 1950 41 WP MM NOT_NAMED 1950-07-26 06:00:00 TS 24.9990 127.618 spur-merge 563 563 __O_______P___ -1 25.0000 127.700 3 48 988 24.9980 127.536 2 17 68
1950205N21131 1950 41 WP MM NOT_NAMED 1950-07-26 09:00:00 TS 25.3391 128.517 spur-merge 654 605 __P_______P___ -1 25.2129 128.493 3 48 988 25.4654 128.542 2 18 65
1950205N21131 1950 41 WP MM NOT_NAMED 1950-07-26 12:00:00 TS 25.7500 129.400 spur-merge 594 539 __O_______O___ -1 25.5000 129.300 3 48 988 26.0000 129.500 2 17 60
1950205N21131 1950 41 WP MM NOT_NAMED 1950-07-26 15:00:00 TS 26.1946 130.148 spur-merge 539 480 __P_______P___ -1 25.7943 129.967 3 48 988 26.5949 130.329 2 16 53
1950205N21131 1950 41 WP MM NOT_NAMED 1950-07-26 18:00:00 TS 26.7017 130.791 spur-merge 480 407 __O_______P___ -1 26.3000 130.600 3 48 988 27.2372 131.046 2 17 43
1950205N21131 1950 41 WP MM NOT_NAMED 1950-07-26 21:00:00 TS 27.4458 131.473 spur-merge 409 326 __P_______P___ -1 27.2131 131.365 3 48 986 27.9112 131.689 2 20 35
1950205N21131 1950 41 WP MM NOT_NAMED 1950-07-27 00:00:00 TS 28.3000 132.075 spur-merge 330 280 __O_______O___ -1 28.2000 132.000 3 48 985 28.6000 132.300 2 17 28
1950205N21131 1950 41 WP MM NOT_NAMED 1950-07-27 03:00:00 TS 28.9093 132.344 spur-merge 280 232 __P___________ -1 28.9369 132.305 3 53 984 2 12 13
1950205N21131 1950 41 WP MM NOT_NAMED 1950-07-27 06:00:00 TS 29.5000 132.400 spur-merge 232 __O___________ -1 29.5000 132.400 3 58 983 2 12 6

デジタル台風データ・検索

IBTrACS Databaseについて

本データベースは、米国NOAAが公開する1842年以降の世界の熱帯低気圧のベストトラックデータアーカイブInternational Best Track Archive for Climate Stewardship (IBTrACS)を、ウェブで閲覧しやすい形式に変換したものです。

最終更新日:2021-10-21